Disclaimer

Please do not use the information listed here in-flight or in-navigation, as they are not provided to us by the airports but are provided by volunteers, so they might be outdated.

Search


Regions


Airport information page

No radio frequency information is available.

Airport informations:
Latitude: 37° 37' 10.00" N
Longitude: 061° 53' 48.00" E
Elevation: 728 feet - 222 meters
Operating hours: 24 hour operations
Operating agency: Civil government, landing fees and diplomatic clearance may be required
Timezone: UTC+5
Fuel: N/A

Runway information:
18R/36L - 7994 x 98 feet< - >2437 x 30 meters
18L/36R - 9107 x 147 feet< - >2776 x 45 meters

Recent METARs:
UTAM 190300Z 12004KT 1500 BR SCT100 BKN230 06/05 Q1022 TEMPO 0800 FG VV003
UTAM 190400Z 12004KT 2000 BR BKN230 06/05 Q1023 TEMPO 0800 FG VV003
UTAM 190400Z 12004KT 2000 BR BKN230 06/05 Q1023 TEMPO 0800 FG VV003

Airport on the map: